Terminal Aerodrome Forecast
Issued by NWS Sterling, VA

Current Version | Previous Version | Graphics & Text | Print | Product List | Glossary On
Versions: 1 2 3 4 5 6 7 8 9 10 11 12 13 14 15 16 17 18 19 20 21 22
000
FTUS41 KLWX 210900 AAA
TAFDCA
TAF AMD
KDCA 210900Z 2109/2206 21005KT P6SM SCT070 BKN250
     FM211100 22004KT P6SM SCT250
     FM211700 25008KT P6SM SCT080
     FM212000 24007KT P6SM BKN070
     FM220000 21006KT P6SM SCT060=

USA.gov is the U.S. government's official web portal to all federal, state and local government web resources and services.